sensor_id;sensor_type;location;lat;lon;timestamp;P1;durP1;ratioP1;P2;durP2;ratioP2
38615;SDS011;24370;51.986;4.666;2023-03-14T00:00:03;19.90;;;2.90;;
38615;SDS011;24370;51.986;4.666;2023-03-14T00:02:36;18.17;;;3.47;;
38615;SDS011;24370;51.986;4.666;2023-03-14T00:05:02;21.57;;;3.50;;
38615;SDS011;24370;51.986;4.666;2023-03-14T00:07:31;16.50;;;3.10;;
38615;SDS011;24370;51.986;4.666;2023-03-14T00:10:04;17.75;;;3.95;;
38615;SDS011;24370;51.986;4.666;2023-03-14T00:12:32;18.43;;;2.57;;
38615;SDS011;24370;51.986;4.666;2023-03-14T00:14:57;12.43;;;2.77;;
38615;SDS011;24370;51.986;4.666;2023-03-14T00:17:25;15.10;;;2.93;;
38615;SDS011;24370;51.986;4.666;2023-03-14T00:19:51;10.97;;;2.50;;
38615;SDS011;24370;51.986;4.666;2023-03-14T00:22:18;5.40;;;1.80;;
38615;SDS011;24370;51.986;4.666;2023-03-14T00:24:44;13.63;;;1.90;;
38615;SDS011;24370;51.986;4.666;2023-03-14T00:27:09;13.73;;;1.93;;
38615;SDS011;24370;51.986;4.666;2023-03-14T00:29:35;12.10;;;1.97;;
38615;SDS011;24370;51.986;4.666;2023-03-14T00:32:00;9.20;;;1.70;;
38615;SDS011;24370;51.986;4.666;2023-03-14T00:34:28;8.00;;;2.23;;
38615;SDS011;24370;51.986;4.666;2023-03-14T00:36:55;7.43;;;2.07;;
38615;SDS011;24370;51.986;4.666;2023-03-14T00:39:20;11.57;;;2.57;;
38615;SDS011;24370;51.986;4.666;2023-03-14T00:41:45;13.73;;;2.63;;
38615;SDS011;24370;51.986;4.666;2023-03-14T00:44:11;14.03;;;2.30;;
38615;SDS011;24370;51.986;4.666;2023-03-14T00:46:36;18.10;;;2.80;;
38615;SDS011;24370;51.986;4.666;2023-03-14T00:49:02;12.43;;;2.20;;
38615;SDS011;24370;51.986;4.666;2023-03-14T00:51:27;17.27;;;3.00;;
38615;SDS011;24370;51.986;4.666;2023-03-14T00:53:52;12.00;;;2.40;;
38615;SDS011;24370;51.986;4.666;2023-03-14T00:56:18;17.27;;;3.13;;
38615;SDS011;24370;51.986;4.666;2023-03-14T00:58:43;19.70;;;3.23;;
38615;SDS011;24370;51.986;4.666;2023-03-14T01:01:11;11.67;;;2.03;;
38615;SDS011;24370;51.986;4.666;2023-03-14T01:03:39;14.47;;;2.27;;
38615;SDS011;24370;51.986;4.666;2023-03-14T01:06:15;15.40;;;2.50;;
38615;SDS011;24370;51.986;4.666;2023-03-14T01:08:42;11.50;;;2.53;;
38615;SDS011;24370;51.986;4.666;2023-03-14T01:11:09;15.63;;;2.30;;
38615;SDS011;24370;51.986;4.666;2023-03-14T01:13:37;12.73;;;1.90;;
38615;SDS011;24370;51.986;4.666;2023-03-14T01:16:03;12.83;;;2.60;;
38615;SDS011;24370;51.986;4.666;2023-03-14T01:18:31;9.03;;;1.67;;
38615;SDS011;24370;51.986;4.666;2023-03-14T01:20:57;16.97;;;2.17;;
38615;SDS011;24370;51.986;4.666;2023-03-14T01:23:23;12.60;;;2.30;;
38615;SDS011;24370;51.986;4.666;2023-03-14T01:25:48;13.40;;;2.37;;
38615;SDS011;24370;51.986;4.666;2023-03-14T01:28:14;14.90;;;2.00;;
38615;SDS011;24370;51.986;4.666;2023-03-14T01:30:40;19.00;;;2.63;;
38615;SDS011;24370;51.986;4.666;2023-03-14T01:33:06;19.23;;;2.13;;
38615;SDS011;24370;51.986;4.666;2023-03-14T01:35:31;13.13;;;2.00;;
38615;SDS011;24370;51.986;4.666;2023-03-14T01:37:57;10.40;;;1.60;;
38615;SDS011;24370;51.986;4.666;2023-03-14T01:40:22;24.10;;;2.53;;
38615;SDS011;24370;51.986;4.666;2023-03-14T01:42:54;17.67;;;3.13;;
38615;SDS011;24370;51.986;4.666;2023-03-14T01:48:27;11.57;;;1.48;;
38615;SDS011;24370;51.986;4.666;2023-03-14T01:50:56;12.07;;;2.13;;
38615;SDS011;24370;51.986;4.666;2023-03-14T01:53:23;9.67;;;1.87;;
38615;SDS011;24370;51.986;4.666;2023-03-14T01:55:48;14.47;;;2.60;;
38615;SDS011;24370;51.986;4.666;2023-03-14T01:58:17;10.70;;;1.70;;
38615;SDS011;24370;51.986;4.666;2023-03-14T02:00:42;12.63;;;1.60;;
38615;SDS011;24370;51.986;4.666;2023-03-14T02:03:12;10.13;;;2.30;;
38615;SDS011;24370;51.986;4.666;2023-03-14T02:05:41;9.23;;;2.43;;
38615;SDS011;24370;51.986;4.666;2023-03-14T02:08:09;16.47;;;1.90;;
38615;SDS011;24370;51.986;4.666;2023-03-14T02:10:39;13.40;;;2.13;;
38615;SDS011;24370;51.986;4.666;2023-03-14T02:13:09;13.13;;;1.93;;
38615;SDS011;24370;51.986;4.666;2023-03-14T02:15:36;8.67;;;1.90;;
38615;SDS011;24370;51.986;4.666;2023-03-14T02:18:04;12.57;;;1.90;;
38615;SDS011;24370;51.986;4.666;2023-03-14T02:20:34;10.87;;;1.60;;
38615;SDS011;24370;51.986;4.666;2023-03-14T02:23:06;15.10;;;2.87;;
38615;SDS011;24370;51.986;4.666;2023-03-14T02:28:15;7.27;;;1.57;;
38615;SDS011;24370;51.986;4.666;2023-03-14T02:30:41;11.77;;;1.77;;
38615;SDS011;24370;51.986;4.666;2023-03-14T02:33:08;14.03;;;2.40;;
38615;SDS011;24370;51.986;4.666;2023-03-14T02:35:38;9.50;;;1.87;;
38615;SDS011;24370;51.986;4.666;2023-03-14T02:38:13;8.47;;;1.50;;
38615;SDS011;24370;51.986;4.666;2023-03-14T02:40:59;10.27;;;1.77;;
38615;SDS011;24370;51.986;4.666;2023-03-14T02:43:24;7.30;;;1.50;;
38615;SDS011;24370;51.986;4.666;2023-03-14T02:45:50;7.87;;;1.80;;
38615;SDS011;24370;51.986;4.666;2023-03-14T02:48:21;12.77;;;1.87;;
38615;SDS011;24370;51.986;4.666;2023-03-14T02:50:47;7.87;;;1.90;;
38615;SDS011;24370;51.986;4.666;2023-03-14T02:53:16;11.10;;;1.87;;
38615;SDS011;24370;51.986;4.666;2023-03-14T02:55:45;17.20;;;3.07;;
38615;SDS011;24370;51.986;4.666;2023-03-14T02:58:11;7.23;;;2.00;;
38615;SDS011;24370;51.986;4.666;2023-03-14T03:00:37;11.60;;;2.13;;
38615;SDS011;24370;51.986;4.666;2023-03-14T03:03:02;12.77;;;2.80;;
38615;SDS011;24370;51.986;4.666;2023-03-14T03:05:30;14.27;;;2.50;;
38615;SDS011;24370;51.986;4.666;2023-03-14T03:07:55;16.50;;;1.83;;
38615;SDS011;24370;51.986;4.666;2023-03-14T03:10:22;9.40;;;1.80;;
38615;SDS011;24370;51.986;4.666;2023-03-14T03:12:47;11.20;;;2.23;;
38615;SDS011;24370;51.986;4.666;2023-03-14T03:15:13;13.73;;;2.70;;
38615;SDS011;24370;51.986;4.666;2023-03-14T03:17:38;10.13;;;2.03;;
38615;SDS011;24370;51.986;4.666;2023-03-14T03:20:04;13.07;;;2.07;;
38615;SDS011;24370;51.986;4.666;2023-03-14T03:22:30;10.47;;;1.83;;
38615;SDS011;24370;51.986;4.666;2023-03-14T03:24:56;11.60;;;2.20;;
38615;SDS011;24370;51.986;4.666;2023-03-14T03:27:21;14.67;;;2.20;;
38615;SDS011;24370;51.986;4.666;2023-03-14T03:29:46;13.17;;;2.00;;
38615;SDS011;24370;51.986;4.666;2023-03-14T03:32:12;9.23;;;2.10;;
38615;SDS011;24370;51.986;4.666;2023-03-14T03:34:37;9.80;;;1.90;;
38615;SDS011;24370;51.986;4.666;2023-03-14T03:37:03;15.47;;;2.43;;
38615;SDS011;24370;51.986;4.666;2023-03-14T03:39:28;11.63;;;2.57;;
38615;SDS011;24370;51.986;4.666;2023-03-14T03:41:54;13.63;;;1.80;;
38615;SDS011;24370;51.986;4.666;2023-03-14T03:44:19;9.67;;;2.03;;
38615;SDS011;24370;51.986;4.666;2023-03-14T03:46:44;18.27;;;2.10;;
38615;SDS011;24370;51.986;4.666;2023-03-14T03:49:10;12.47;;;2.10;;
38615;SDS011;24370;51.986;4.666;2023-03-14T03:51:36;9.30;;;2.07;;
38615;SDS011;24370;51.986;4.666;2023-03-14T03:54:01;12.23;;;1.90;;
38615;SDS011;24370;51.986;4.666;2023-03-14T03:56:27;11.70;;;2.23;;
38615;SDS011;24370;51.986;4.666;2023-03-14T03:58:52;16.77;;;3.63;;
38615;SDS011;24370;51.986;4.666;2023-03-14T04:01:17;9.17;;;2.47;;
38615;SDS011;24370;51.986;4.666;2023-03-14T04:03:43;9.97;;;2.00;;
38615;SDS011;24370;51.986;4.666;2023-03-14T04:06:09;7.70;;;1.40;;
38615;SDS011;24370;51.986;4.666;2023-03-14T04:08:36;12.90;;;2.17;;
38615;SDS011;24370;51.986;4.666;2023-03-14T04:11:02;12.07;;;2.50;;
38615;SDS011;24370;51.986;4.666;2023-03-14T04:13:28;16.20;;;2.23;;
38615;SDS011;24370;51.986;4.666;2023-03-14T04:15:54;12.67;;;1.90;;
38615;SDS011;24370;51.986;4.666;2023-03-14T04:18:20;12.90;;;2.67;;
38615;SDS011;24370;51.986;4.666;2023-03-14T04:20:56;9.03;;;1.80;;
38615;SDS011;24370;51.986;4.666;2023-03-14T04:23:23;11.73;;;1.73;;
38615;SDS011;24370;51.986;4.666;2023-03-14T04:25:49;7.80;;;1.90;;
38615;SDS011;24370;51.986;4.666;2023-03-14T04:28:15;10.03;;;2.10;;
38615;SDS011;24370;51.986;4.666;2023-03-14T04:30:40;10.17;;;1.70;;
38615;SDS011;24370;51.986;4.666;2023-03-14T04:33:06;13.57;;;2.17;;
38615;SDS011;24370;51.986;4.666;2023-03-14T04:35:32;13.07;;;2.20;;
38615;SDS011;24370;51.986;4.666;2023-03-14T04:37:58;12.07;;;2.00;;
38615;SDS011;24370;51.986;4.666;2023-03-14T04:40:24;6.17;;;1.50;;
38615;SDS011;24370;51.986;4.666;2023-03-14T04:42:49;8.67;;;1.93;;
38615;SDS011;24370;51.986;4.666;2023-03-14T04:45:15;16.80;;;2.30;;
38615;SDS011;24370;51.986;4.666;2023-03-14T04:47:40;7.77;;;1.70;;
38615;SDS011;24370;51.986;4.666;2023-03-14T04:50:06;10.63;;;2.00;;
38615;SDS011;24370;51.986;4.666;2023-03-14T04:52:31;10.63;;;2.17;;
38615;SDS011;24370;51.986;4.666;2023-03-14T04:54:57;16.60;;;2.80;;
38615;SDS011;24370;51.986;4.666;2023-03-14T04:57:22;7.13;;;1.70;;
38615;SDS011;24370;51.986;4.666;2023-03-14T04:59:47;5.47;;;1.53;;
38615;SDS011;24370;51.986;4.666;2023-03-14T05:02:13;12.67;;;2.17;;
38615;SDS011;24370;51.986;4.666;2023-03-14T05:04:38;10.97;;;2.10;;
38615;SDS011;24370;51.986;4.666;2023-03-14T05:07:03;13.43;;;2.20;;
38615;SDS011;24370;51.986;4.666;2023-03-14T05:09:29;7.17;;;2.10;;
38615;SDS011;24370;51.986;4.666;2023-03-14T05:11:55;7.60;;;2.00;;
38615;SDS011;24370;51.986;4.666;2023-03-14T05:14:20;11.10;;;2.20;;
38615;SDS011;24370;51.986;4.666;2023-03-14T05:16:45;9.00;;;2.17;;
38615;SDS011;24370;51.986;4.666;2023-03-14T05:19:11;18.27;;;3.13;;
38615;SDS011;24370;51.986;4.666;2023-03-14T05:21:36;9.53;;;2.43;;
38615;SDS011;24370;51.986;4.666;2023-03-14T05:24:02;6.43;;;1.97;;
38615;SDS011;24370;51.986;4.666;2023-03-14T05:26:28;7.27;;;1.93;;
38615;SDS011;24370;51.986;4.666;2023-03-14T05:28:53;8.67;;;2.47;;
38615;SDS011;24370;51.986;4.666;2023-03-14T05:31:18;13.43;;;2.90;;
38615;SDS011;24370;51.986;4.666;2023-03-14T05:33:44;9.40;;;2.27;;
38615;SDS011;24370;51.986;4.666;2023-03-14T05:36:09;6.27;;;2.70;;
38615;SDS011;24370;51.986;4.666;2023-03-14T05:38:35;10.77;;;2.93;;
38615;SDS011;24370;51.986;4.666;2023-03-14T05:41:00;6.47;;;3.07;;
38615;SDS011;24370;51.986;4.666;2023-03-14T05:43:25;8.50;;;3.00;;
38615;SDS011;24370;51.986;4.666;2023-03-14T05:45:51;6.93;;;2.43;;
38615;SDS011;24370;51.986;4.666;2023-03-14T05:48:16;9.13;;;2.30;;
38615;SDS011;24370;51.986;4.666;2023-03-14T05:50:42;5.67;;;1.83;;
38615;SDS011;24370;51.986;4.666;2023-03-14T05:53:07;5.43;;;1.60;;
38615;SDS011;24370;51.986;4.666;2023-03-14T05:55:33;6.53;;;1.10;;
38615;SDS011;24370;51.986;4.666;2023-03-14T05:57:58;4.53;;;0.87;;
38615;SDS011;24370;51.986;4.666;2023-03-14T06:00:23;6.00;;;1.20;;
38615;SDS011;24370;51.986;4.666;2023-03-14T06:02:49;2.37;;;0.70;;
38615;SDS011;24370;51.986;4.666;2023-03-14T06:05:14;5.17;;;1.13;;
38615;SDS011;24370;51.986;4.666;2023-03-14T06:07:40;6.03;;;1.00;;
38615;SDS011;24370;51.986;4.666;2023-03-14T06:10:05;4.07;;;0.93;;
38615;SDS011;24370;51.986;4.666;2023-03-14T06:12:31;2.67;;;0.70;;
38615;SDS011;24370;51.986;4.666;2023-03-14T06:14:56;5.53;;;1.10;;
38615;SDS011;24370;51.986;4.666;2023-03-14T06:17:22;10.80;;;1.27;;
38615;SDS011;24370;51.986;4.666;2023-03-14T06:19:47;5.93;;;1.20;;
38615;SDS011;24370;51.986;4.666;2023-03-14T06:22:12;7.07;;;1.30;;
38615;SDS011;24370;51.986;4.666;2023-03-14T06:24:38;7.77;;;1.43;;
38615;SDS011;24370;51.986;4.666;2023-03-14T06:27:04;6.30;;;1.30;;
38615;SDS011;24370;51.986;4.666;2023-03-14T06:29:32;3.03;;;0.70;;
38615;SDS011;24370;51.986;4.666;2023-03-14T06:31:57;1.40;;;0.67;;
38615;SDS011;24370;51.986;4.666;2023-03-14T06:34:23;6.27;;;1.10;;
38615;SDS011;24370;51.986;4.666;2023-03-14T06:36:48;6.83;;;1.20;;
38615;SDS011;24370;51.986;4.666;2023-03-14T06:39:14;7.83;;;1.33;;
38615;SDS011;24370;51.986;4.666;2023-03-14T06:41:39;8.90;;;2.50;;
38615;SDS011;24370;51.986;4.666;2023-03-14T06:44:04;5.23;;;0.80;;
38615;SDS011;24370;51.986;4.666;2023-03-14T06:46:30;4.67;;;0.67;;
38615;SDS011;24370;51.986;4.666;2023-03-14T06:48:55;6.10;;;0.90;;
38615;SDS011;24370;51.986;4.666;2023-03-14T06:51:21;5.57;;;0.70;;
38615;SDS011;24370;51.986;4.666;2023-03-14T06:53:46;2.30;;;0.50;;
38615;SDS011;24370;51.986;4.666;2023-03-14T06:56:11;3.67;;;0.67;;
38615;SDS011;24370;51.986;4.666;2023-03-14T06:58:37;5.30;;;1.60;;
38615;SDS011;24370;51.986;4.666;2023-03-14T07:01:02;5.73;;;0.80;;
38615;SDS011;24370;51.986;4.666;2023-03-14T07:03:28;4.77;;;1.00;;
38615;SDS011;24370;51.986;4.666;2023-03-14T07:05:54;6.97;;;0.87;;
38615;SDS011;24370;51.986;4.666;2023-03-14T07:08:19;9.80;;;1.07;;
38615;SDS011;24370;51.986;4.666;2023-03-14T07:10:44;13.27;;;1.40;;
38615;SDS011;24370;51.986;4.666;2023-03-14T07:13:10;5.80;;;0.90;;
38615;SDS011;24370;51.986;4.666;2023-03-14T07:15:35;10.63;;;1.37;;
38615;SDS011;24370;51.986;4.666;2023-03-14T07:18:01;5.43;;;1.00;;
38615;SDS011;24370;51.986;4.666;2023-03-14T07:20:26;7.87;;;1.20;;
38615;SDS011;24370;51.986;4.666;2023-03-14T07:22:52;7.37;;;1.13;;
38615;SDS011;24370;51.986;4.666;2023-03-14T07:25:17;12.20;;;1.97;;
38615;SDS011;24370;51.986;4.666;2023-03-14T07:27:43;14.23;;;2.00;;
38615;SDS011;24370;51.986;4.666;2023-03-14T07:30:10;7.30;;;1.90;;
38615;SDS011;24370;51.986;4.666;2023-03-14T07:32:35;17.43;;;2.93;;
38615;SDS011;24370;51.986;4.666;2023-03-14T07:35:01;11.70;;;1.63;;
38615;SDS011;24370;51.986;4.666;2023-03-14T07:37:27;8.80;;;1.80;;
38615;SDS011;24370;51.986;4.666;2023-03-14T07:39:52;12.13;;;1.57;;
38615;SDS011;24370;51.986;4.666;2023-03-14T07:42:17;13.23;;;1.67;;
38615;SDS011;24370;51.986;4.666;2023-03-14T07:44:43;10.57;;;1.23;;
38615;SDS011;24370;51.986;4.666;2023-03-14T07:47:08;10.27;;;1.30;;
38615;SDS011;24370;51.986;4.666;2023-03-14T07:49:33;9.67;;;1.27;;
38615;SDS011;24370;51.986;4.666;2023-03-14T07:51:59;10.70;;;1.70;;
38615;SDS011;24370;51.986;4.666;2023-03-14T07:54:24;7.73;;;1.50;;
38615;SDS011;24370;51.986;4.666;2023-03-14T07:56:50;11.43;;;1.90;;
38615;SDS011;24370;51.986;4.666;2023-03-14T07:59:17;10.67;;;2.23;;
38615;SDS011;24370;51.986;4.666;2023-03-14T08:01:42;11.23;;;2.17;;
38615;SDS011;24370;51.986;4.666;2023-03-14T08:04:08;12.80;;;1.30;;
38615;SDS011;24370;51.986;4.666;2023-03-14T08:06:34;2.67;;;0.90;;
38615;SDS011;24370;51.986;4.666;2023-03-14T08:09:00;7.10;;;1.63;;
38615;SDS011;24370;51.986;4.666;2023-03-14T08:11:26;17.10;;;2.07;;
38615;SDS011;24370;51.986;4.666;2023-03-14T08:13:51;12.73;;;1.80;;
38615;SDS011;24370;51.986;4.666;2023-03-14T08:16:17;16.10;;;3.03;;
38615;SDS011;24370;51.986;4.666;2023-03-14T08:18:43;10.40;;;1.67;;
38615;SDS011;24370;51.986;4.666;2023-03-14T08:21:09;9.67;;;1.80;;
38615;SDS011;24370;51.986;4.666;2023-03-14T08:23:35;7.10;;;1.50;;
38615;SDS011;24370;51.986;4.666;2023-03-14T08:26:01;10.83;;;1.40;;
38615;SDS011;24370;51.986;4.666;2023-03-14T08:28:26;7.23;;;2.10;;
38615;SDS011;24370;51.986;4.666;2023-03-14T08:30:55;10.10;;;1.17;;
38615;SDS011;24370;51.986;4.666;2023-03-14T08:33:21;5.60;;;0.90;;
38615;SDS011;24370;51.986;4.666;2023-03-14T08:35:47;8.93;;;0.70;;
38615;SDS011;24370;51.986;4.666;2023-03-14T08:38:12;1.80;;;0.63;;
38615;SDS011;24370;51.986;4.666;2023-03-14T08:40:37;4.30;;;0.67;;
38615;SDS011;24370;51.986;4.666;2023-03-14T08:43:03;2.33;;;0.40;;
38615;SDS011;24370;51.986;4.666;2023-03-14T08:45:28;8.90;;;0.80;;
38615;SDS011;24370;51.986;4.666;2023-03-14T08:47:54;5.20;;;0.60;;
38615;SDS011;24370;51.986;4.666;2023-03-14T08:50:19;6.63;;;0.80;;
38615;SDS011;24370;51.986;4.666;2023-03-14T08:52:44;9.73;;;1.00;;
38615;SDS011;24370;51.986;4.666;2023-03-14T08:55:10;5.60;;;0.73;;
38615;SDS011;24370;51.986;4.666;2023-03-14T08:57:36;5.90;;;0.80;;
38615;SDS011;24370;51.986;4.666;2023-03-14T09:00:02;2.60;;;0.83;;
38615;SDS011;24370;51.986;4.666;2023-03-14T09:02:39;4.90;;;0.87;;
38615;SDS011;24370;51.986;4.666;2023-03-14T09:05:04;10.40;;;1.00;;
38615;SDS011;24370;51.986;4.666;2023-03-14T09:07:30;3.80;;;0.93;;
38615;SDS011;24370;51.986;4.666;2023-03-14T09:09:56;7.97;;;1.10;;
38615;SDS011;24370;51.986;4.666;2023-03-14T09:12:21;12.70;;;1.40;;
38615;SDS011;24370;51.986;4.666;2023-03-14T09:14:47;7.70;;;1.07;;
38615;SDS011;24370;51.986;4.666;2023-03-14T09:17:12;8.97;;;1.10;;
38615;SDS011;24370;51.986;4.666;2023-03-14T09:19:37;14.57;;;1.90;;
38615;SDS011;24370;51.986;4.666;2023-03-14T09:22:03;12.53;;;1.43;;
38615;SDS011;24370;51.986;4.666;2023-03-14T09:24:28;8.90;;;1.20;;
38615;SDS011;24370;51.986;4.666;2023-03-14T09:26:54;13.43;;;2.53;;
38615;SDS011;24370;51.986;4.666;2023-03-14T09:29:21;9.40;;;1.37;;
38615;SDS011;24370;51.986;4.666;2023-03-14T09:31:46;14.43;;;2.13;;
38615;SDS011;24370;51.986;4.666;2023-03-14T09:34:12;14.27;;;2.20;;
38615;SDS011;24370;51.986;4.666;2023-03-14T09:36:37;18.67;;;2.20;;
38615;SDS011;24370;51.986;4.666;2023-03-14T09:39:04;12.57;;;2.20;;
38615;SDS011;24370;51.986;4.666;2023-03-14T09:41:34;15.57;;;1.70;;
38615;SDS011;24370;51.986;4.666;2023-03-14T09:44:13;23.87;;;2.40;;
38615;SDS011;24370;51.986;4.666;2023-03-14T09:46:42;14.47;;;2.30;;
38615;SDS011;24370;51.986;4.666;2023-03-14T09:52:00;17.53;;;2.03;;
38615;SDS011;24370;51.986;4.666;2023-03-14T09:54:31;14.60;;;1.63;;
38615;SDS011;24370;51.986;4.666;2023-03-14T09:57:13;24.10;;;2.93;;
38615;SDS011;24370;51.986;4.666;2023-03-14T09:59:42;16.20;;;2.53;;
38615;SDS011;24370;51.986;4.666;2023-03-14T10:02:20;13.70;;;2.10;;
38615;SDS011;24370;51.986;4.666;2023-03-14T10:04:48;11.47;;;1.83;;
38615;SDS011;24370;51.986;4.666;2023-03-14T10:07:16;9.17;;;1.63;;
38615;SDS011;24370;51.986;4.666;2023-03-14T10:09:53;17.90;;;1.80;;
38615;SDS011;24370;51.986;4.666;2023-03-14T10:12:19;16.23;;;2.30;;
38615;SDS011;24370;51.986;4.666;2023-03-14T10:14:54;21.73;;;2.30;;
38615;SDS011;24370;51.986;4.666;2023-03-14T10:17:20;27.07;;;2.97;;
38615;SDS011;24370;51.986;4.666;2023-03-14T10:19:55;18.40;;;2.80;;
38615;SDS011;24370;51.986;4.666;2023-03-14T10:22:23;20.63;;;2.60;;
38615;SDS011;24370;51.986;4.666;2023-03-14T10:24:57;21.43;;;2.60;;
38615;SDS011;24370;51.986;4.666;2023-03-14T10:27:28;22.73;;;2.87;;
38615;SDS011;24370;51.986;4.666;2023-03-14T10:29:56;19.43;;;2.70;;
38615;SDS011;24370;51.986;4.666;2023-03-14T10:32:27;26.20;;;3.17;;
38615;SDS011;24370;51.986;4.666;2023-03-14T10:35:19;29.33;;;3.37;;
38615;SDS011;24370;51.986;4.666;2023-03-14T10:38:01;18.40;;;2.83;;
38615;SDS011;24370;51.986;4.666;2023-03-14T10:40:31;21.30;;;2.80;;
38615;SDS011;24370;51.986;4.666;2023-03-14T10:42:59;16.60;;;3.13;;
38615;SDS011;24370;51.986;4.666;2023-03-14T10:47:57;19.63;;;3.17;;
38615;SDS011;24370;51.986;4.666;2023-03-14T10:50:56;21.00;;;3.07;;
38615;SDS011;24370;51.986;4.666;2023-03-14T10:53:29;20.73;;;3.00;;
38615;SDS011;24370;51.986;4.666;2023-03-14T10:55:58;25.27;;;3.40;;
38615;SDS011;24370;51.986;4.666;2023-03-14T10:58:28;22.20;;;2.80;;
38615;SDS011;24370;51.986;4.666;2023-03-14T11:03:23;20.53;;;2.40;;
38615;SDS011;24370;51.986;4.666;2023-03-14T11:08:37;28.23;;;3.67;;
38615;SDS011;24370;51.986;4.666;2023-03-14T11:11:25;24.37;;;4.60;;
38615;SDS011;24370;51.986;4.666;2023-03-14T11:13:56;16.10;;;2.10;;
38615;SDS011;24370;51.986;4.666;2023-03-14T11:16:34;22.70;;;2.53;;
38615;SDS011;24370;51.986;4.666;2023-03-14T11:19:29;14.17;;;2.83;;
38615;SDS011;24370;51.986;4.666;2023-03-14T11:22:18;20.00;;;2.33;;
38615;SDS011;24370;51.986;4.666;2023-03-14T11:33:16;11.37;;;1.83;;
38615;SDS011;24370;51.986;4.666;2023-03-14T11:35:52;14.43;;;1.90;;
38615;SDS011;24370;51.986;4.666;2023-03-14T11:40:59;9.53;;;2.00;;
38615;SDS011;24370;51.986;4.666;2023-03-14T11:43:35;14.30;;;1.90;;
38615;SDS011;24370;51.986;4.666;2023-03-14T11:46:10;12.97;;;1.60;;
38615;SDS011;24370;51.986;4.666;2023-03-14T11:48:50;6.70;;;1.47;;
38615;SDS011;24370;51.986;4.666;2023-03-14T11:51:24;9.43;;;1.77;;
38615;SDS011;24370;51.986;4.666;2023-03-14T11:54:03;14.13;;;1.60;;
38615;SDS011;24370;51.986;4.666;2023-03-14T11:59:03;15.23;;;1.80;;
38615;SDS011;24370;51.986;4.666;2023-03-14T12:02:16;10.93;;;1.93;;
38615;SDS011;24370;51.986;4.666;2023-03-14T12:04:49;19.73;;;1.50;;
38615;SDS011;24370;51.986;4.666;2023-03-14T12:07:34;11.37;;;1.87;;
38615;SDS011;24370;51.986;4.666;2023-03-14T12:10:12;13.70;;;1.70;;
38615;SDS011;24370;51.986;4.666;2023-03-14T12:12:37;9.30;;;1.50;;
38615;SDS011;24370;51.986;4.666;2023-03-14T12:15:03;11.73;;;1.47;;
38615;SDS011;24370;51.986;4.666;2023-03-14T12:17:40;12.60;;;1.90;;
38615;SDS011;24370;51.986;4.666;2023-03-14T12:30:25;12.03;;;1.60;;
38615;SDS011;24370;51.986;4.666;2023-03-14T12:35:39;8.10;;;1.57;;
38615;SDS011;24370;51.986;4.666;2023-03-14T12:38:09;16.47;;;2.27;;
38615;SDS011;24370;51.986;4.666;2023-03-14T12:40:49;8.50;;;1.63;;
38615;SDS011;24370;51.986;4.666;2023-03-14T12:43:27;15.00;;;2.47;;
38615;SDS011;24370;51.986;4.666;2023-03-14T12:48:43;11.27;;;2.00;;
38615;SDS011;24370;51.986;4.666;2023-03-14T12:51:14;11.90;;;1.63;;
38615;SDS011;24370;51.986;4.666;2023-03-14T12:59:17;9.77;;;1.53;;
38615;SDS011;24370;51.986;4.666;2023-03-14T13:04:25;7.93;;;1.40;;
38615;SDS011;24370;51.986;4.666;2023-03-14T13:12:15;10.17;;;1.00;;
38615;SDS011;24370;51.986;4.666;2023-03-14T13:14:43;5.57;;;1.20;;
38615;SDS011;24370;51.986;4.666;2023-03-14T13:17:12;7.80;;;1.93;;
38615;SDS011;24370;51.986;4.666;2023-03-14T13:19:38;10.83;;;1.30;;
38615;SDS011;24370;51.986;4.666;2023-03-14T13:22:06;12.07;;;1.33;;
38615;SDS011;24370;51.986;4.666;2023-03-14T13:24:45;7.37;;;1.30;;
38615;SDS011;24370;51.986;4.666;2023-03-14T13:27:18;11.93;;;1.23;;
38615;SDS011;24370;51.986;4.666;2023-03-14T13:29:45;7.43;;;1.30;;
38615;SDS011;24370;51.986;4.666;2023-03-14T13:32:19;9.07;;;1.30;;
38615;SDS011;24370;51.986;4.666;2023-03-14T13:34:46;11.88;;;2.83;;
38615;SDS011;24370;51.986;4.666;2023-03-14T13:37:20;9.57;;;1.80;;
38615;SDS011;24370;51.986;4.666;2023-03-14T13:39:51;14.07;;;1.43;;
38615;SDS011;24370;51.986;4.666;2023-03-14T13:42:21;18.37;;;1.83;;
38615;SDS011;24370;51.986;4.666;2023-03-14T13:44:51;13.77;;;1.30;;
38615;SDS011;24370;51.986;4.666;2023-03-14T13:47:19;4.93;;;1.20;;
38615;SDS011;24370;51.986;4.666;2023-03-14T13:49:46;3.67;;;1.20;;
38615;SDS011;24370;51.986;4.666;2023-03-14T13:55:03;9.00;;;1.17;;
38615;SDS011;24370;51.986;4.666;2023-03-14T13:57:46;8.73;;;1.20;;
38615;SDS011;24370;51.986;4.666;2023-03-14T14:00:21;6.60;;;1.07;;
38615;SDS011;24370;51.986;4.666;2023-03-14T14:02:51;10.33;;;1.30;;
38615;SDS011;24370;51.986;4.666;2023-03-14T14:05:19;8.20;;;1.30;;
38615;SDS011;24370;51.986;4.666;2023-03-14T14:07:45;7.43;;;1.63;;
38615;SDS011;24370;51.986;4.666;2023-03-14T14:10:11;6.37;;;1.10;;
38615;SDS011;24370;51.986;4.666;2023-03-14T14:12:39;10.47;;;1.77;;
38615;SDS011;24370;51.986;4.666;2023-03-14T14:15:16;6.20;;;1.53;;
38615;SDS011;24370;51.986;4.666;2023-03-14T14:17:51;11.60;;;2.13;;
38615;SDS011;24370;51.986;4.666;2023-03-14T14:22:56;8.67;;;1.57;;
38615;SDS011;24370;51.986;4.666;2023-03-14T14:25:22;6.53;;;0.90;;
38615;SDS011;24370;51.986;4.666;2023-03-14T14:27:49;7.20;;;1.10;;
38615;SDS011;24370;51.986;4.666;2023-03-14T14:32:43;9.17;;;1.57;;
38615;SDS011;24370;51.986;4.666;2023-03-14T14:35:21;6.57;;;1.97;;
38615;SDS011;24370;51.986;4.666;2023-03-14T14:37:47;11.23;;;1.37;;
38615;SDS011;24370;51.986;4.666;2023-03-14T14:40:16;11.33;;;1.37;;
38615;SDS011;24370;51.986;4.666;2023-03-14T14:42:45;6.75;;;1.42;;
38615;SDS011;24370;51.986;4.666;2023-03-14T14:45:45;7.07;;;1.50;;
38615;SDS011;24370;51.986;4.666;2023-03-14T14:48:05;10.20;;;1.60;;
38615;SDS011;24370;51.986;4.666;2023-03-14T14:50:37;15.57;;;1.53;;
38615;SDS011;24370;51.986;4.666;2023-03-14T14:56:03;7.23;;;1.50;;
38615;SDS011;24370;51.986;4.666;2023-03-14T14:58:36;8.70;;;1.80;;
38615;SDS011;24370;51.986;4.666;2023-03-14T15:01:24;8.20;;;1.20;;
38615;SDS011;24370;51.986;4.666;2023-03-14T15:03:55;12.07;;;1.63;;
38615;SDS011;24370;51.986;4.666;2023-03-14T15:06:21;8.03;;;1.00;;
38615;SDS011;24370;51.986;4.666;2023-03-14T15:08:52;7.23;;;1.67;;
38615;SDS011;24370;51.986;4.666;2023-03-14T15:11:22;15.60;;;1.63;;
38615;SDS011;24370;51.986;4.666;2023-03-14T15:13:52;11.07;;;2.20;;
38615;SDS011;24370;51.986;4.666;2023-03-14T15:16:27;9.70;;;1.73;;
38615;SDS011;24370;51.986;4.666;2023-03-14T15:18:56;8.37;;;1.50;;
38615;SDS011;24370;51.986;4.666;2023-03-14T15:21:23;7.97;;;1.60;;
38615;SDS011;24370;51.986;4.666;2023-03-14T15:23:50;11.73;;;1.63;;
38615;SDS011;24370;51.986;4.666;2023-03-14T15:26:19;7.63;;;2.23;;
38615;SDS011;24370;51.986;4.666;2023-03-14T15:28:47;17.60;;;1.70;;
38615;SDS011;24370;51.986;4.666;2023-03-14T15:31:13;12.17;;;1.30;;
38615;SDS011;24370;51.986;4.666;2023-03-14T15:33:39;10.43;;;1.73;;
38615;SDS011;24370;51.986;4.666;2023-03-14T15:36:06;8.93;;;1.10;;
38615;SDS011;24370;51.986;4.666;2023-03-14T15:38:40;11.20;;;1.60;;
38615;SDS011;24370;51.986;4.666;2023-03-14T15:41:05;10.10;;;1.30;;
38615;SDS011;24370;51.986;4.666;2023-03-14T15:43:31;5.57;;;1.47;;
38615;SDS011;24370;51.986;4.666;2023-03-14T15:45:56;10.93;;;1.50;;
38615;SDS011;24370;51.986;4.666;2023-03-14T15:48:22;7.97;;;1.10;;
38615;SDS011;24370;51.986;4.666;2023-03-14T15:50:47;8.40;;;1.83;;
38615;SDS011;24370;51.986;4.666;2023-03-14T15:53:13;8.70;;;1.70;;
38615;SDS011;24370;51.986;4.666;2023-03-14T15:55:38;12.50;;;1.20;;